Time;durP1;ratioP1;P1;durP2;ratioP2;P2;SDS_P1;SDS_P2;PMS_P1;PMS_P2;Temp;Humidity;BMP_temperature;BMP_pressure;BME280_temperature;BME280_humidity;BME280_pressure;Samples;Min_cycle;Max_cycle;Signal;HPM_P1;HPM_P2
2023/06/15 00:01:32;;;;;;;7.85;1.98;;;;;;;-146.25;100.00;57403.91;5089423;28;20206;-82
2023/06/15 00:04:59;;;;;;;2.65;2.38;;;;;;;-146.25;100.00;57403.91;5089147;28;20209;-81
2023/06/15 00:08:24;;;;;;;2.42;2.22;;;;;;;-146.25;100.00;57403.91;5089246;28;20274;-81
2023/06/15 00:11:50;;;;;;;1.95;1.85;;;;;;;-146.25;100.00;57403.91;5088887;28;20202;-81
2023/06/15 00:15:15;;;;;;;2.35;2.20;;;;;;;-146.25;100.00;57403.91;5090473;28;20221;-81
2023/06/15 00:18:41;;;;;;;2.83;2.55;;;;;;;-146.25;100.00;57403.91;5088588;28;20206;-83
2023/06/15 00:22:09;;;;;;;7.65;3.00;;;;;;;-146.25;100.00;57403.91;5089114;28;20276;-82
2023/06/15 00:25:35;;;;;;;4.03;3.15;;;;;;;-146.25;100.00;57403.91;5089655;28;20288;-81
2023/06/15 00:29:01;;;;;;;4.53;3.20;;;;;;;-146.25;100.00;57403.91;5088875;28;20197;-81
2023/06/15 00:32:26;;;;;;;4.47;2.47;;;;;;;-146.25;100.00;57403.91;5089111;28;20259;-82
2023/06/15 00:35:52;;;;;;;3.55;2.28;;;;;;;-146.25;100.00;57403.91;5090708;28;20613;-82
2023/06/15 00:39:18;;;;;;;2.20;2.03;;;;;;;-146.25;100.00;57403.91;5089189;28;20222;-83
2023/06/15 00:42:44;;;;;;;2.67;2.47;;;;;;;-146.25;100.00;57403.91;5088559;28;20301;-82
2023/06/15 00:46:10;;;;;;;6.18;2.47;;;;;;;-146.25;100.00;57403.91;5088631;28;20598;-82
2023/06/15 00:49:36;;;;;;;1.92;1.80;;;;;;;-146.25;100.00;57403.91;5091634;28;20221;-83
2023/06/15 00:53:03;;;;;;;2.58;2.38;;;;;;;-146.25;100.00;57403.91;5093746;28;20210;-83
2023/06/15 00:56:30;;;;;;;2.80;2.60;;;;;;;-146.25;100.00;57403.91;5089424;28;20211;-82
2023/06/15 00:59:56;;;;;;;2.47;2.28;;;;;;;-146.25;100.00;57403.91;5089347;28;20209;-81
2023/06/15 01:03:21;;;;;;;2.90;2.70;;;;;;;-146.25;100.00;57403.91;5093160;28;20305;-81
2023/06/15 01:06:52;;;;;;;2.83;2.13;;;;;;;-146.25;100.00;57403.91;5092319;28;20216;-83
2023/06/15 01:10:20;;;;;;;2.63;2.42;;;;;;;-146.25;100.00;57403.91;5089925;28;20239;-81
2023/06/15 01:13:48;;;;;;;3.05;2.85;;;;;;;-146.25;100.00;57403.91;5092317;28;20222;-82
2023/06/15 01:17:23;;;;;;;4.63;2.42;;;;;;;-146.25;100.00;57403.91;5092372;28;20276;-84
2023/06/15 01:20:53;;;;;;;3.65;3.33;;;;;;;-146.25;100.00;57403.91;5092654;28;20266;-82
2023/06/15 01:24:23;;;;;;;2.67;2.40;;;;;;;-146.25;100.00;57403.91;5092297;28;20285;-83
2023/06/15 01:27:50;;;;;;;3.40;2.13;;;;;;;-146.25;100.00;57403.91;5091955;28;20207;-83
2023/06/15 01:31:16;;;;;;;2.10;1.90;;;;;;;-146.25;100.00;57403.91;5092490;28;20265;-82
2023/06/15 01:34:45;;;;;;;5.80;2.78;;;;;;;-146.25;100.00;57403.91;5092090;28;20249;-83
2023/06/15 01:38:11;;;;;;;2.75;2.55;;;;;;;-146.25;100.00;57403.91;5092278;28;20233;-81
2023/06/15 01:41:38;;;;;;;2.63;2.33;;;;;;;-146.25;100.00;57403.91;5092870;28;20203;-82
2023/06/15 01:45:06;;;;;;;2.88;2.50;;;;;;;-146.25;100.00;57403.91;5091612;28;20199;-82
2023/06/15 01:48:32;;;;;;;4.25;2.15;;;;;;;-146.25;100.00;57403.91;5092505;28;20240;-82
2023/06/15 01:51:58;;;;;;;2.80;2.50;;;;;;;-146.25;100.00;57403.91;5092217;28;20292;-81
2023/06/15 01:55:24;;;;;;;3.80;2.63;;;;;;;-146.25;100.00;57403.91;5092983;28;20279;-81
2023/06/15 01:58:51;;;;;;;2.35;2.22;;;;;;;-146.25;100.00;57403.91;5091618;28;20235;-81
2023/06/15 02:02:18;;;;;;;3.40;3.08;;;;;;;-146.25;100.00;57403.91;5092573;28;20203;-82
2023/06/15 02:05:44;;;;;;;3.80;3.17;;;;;;;-146.25;100.00;57403.91;5091504;28;20301;-82
2023/06/15 02:09:09;;;;;;;3.88;2.55;;;;;;;-146.25;100.00;57403.91;5091535;28;20226;-81
2023/06/15 02:12:35;;;;;;;4.05;2.55;;;;;;;-146.25;100.00;57403.91;5090082;28;20259;-84
2023/06/15 02:16:01;;;;;;;3.72;3.40;;;;;;;-146.25;100.00;57403.91;5091281;28;20241;-81
2023/06/15 02:19:28;;;;;;;3.35;3.00;;;;;;;-146.25;100.00;57403.91;5091187;28;20724;-82
2023/06/15 02:22:56;;;;;;;4.80;3.22;;;;;;;-146.25;100.00;57403.91;5091451;28;20198;-81
2023/06/15 02:26:22;;;;;;;5.15;3.15;;;;;;;-146.25;100.00;57403.91;5091121;28;20218;-82
2023/06/15 02:29:47;;;;;;;2.80;2.20;;;;;;;-146.25;100.00;57403.91;5091539;28;20729;-81
2023/06/15 02:33:25;;;;;;;2.90;2.58;;;;;;;-146.25;100.00;57403.91;5091678;28;20673;-82
2023/06/15 02:36:53;;;;;;;2.95;2.50;;;;;;;-146.25;100.00;57403.91;5091512;28;20215;-81
2023/06/15 02:40:19;;;;;;;5.00;2.90;;;;;;;-146.25;100.00;57403.91;5091405;28;20195;-81
2023/06/15 02:43:44;;;;;;;2.60;2.40;;;;;;;-146.25;100.00;57403.91;5091702;28;20197;-82
2023/06/15 02:47:09;;;;;;;3.05;2.38;;;;;;;-146.25;100.00;57403.91;5091711;28;20207;-83
2023/06/15 02:50:35;;;;;;;2.38;2.20;;;;;;;-146.25;100.00;57403.91;5090545;28;20247;-82
2023/06/15 02:54:02;;;;;;;2.22;2.03;;;;;;;-146.25;100.00;57403.91;5090964;28;20222;-82
2023/06/15 02:57:28;;;;;;;2.67;2.47;;;;;;;-146.25;100.00;57403.91;5091443;28;20206;-82
2023/06/15 03:00:54;;;;;;;2.75;2.55;;;;;;;-146.25;100.00;57403.91;5090807;28;20588;-83
2023/06/15 03:04:21;;;;;;;2.33;1.95;;;;;;;-146.25;100.00;57403.91;5090101;28;20284;-82
2023/06/15 03:07:52;;;;;;;1.98;1.88;;;;;;;-146.25;100.00;57403.91;5090988;28;20202;-81
2023/06/15 03:11:19;;;;;;;2.50;2.30;;;;;;;-146.25;100.00;57403.91;5090140;28;20207;-83
2023/06/15 03:14:50;;;;;;;1.83;1.73;;;;;;;-146.25;100.00;57403.91;5090724;28;20235;-81
2023/06/15 03:18:16;;;;;;;5.38;2.50;;;;;;;-146.25;100.00;57403.91;5089597;28;20285;-82
2023/06/15 03:21:42;;;;;;;2.22;2.10;;;;;;;-146.25;100.00;57403.91;5100076;28;20224;-81
2023/06/15 03:25:11;;;;;;;3.03;2.40;;;;;;;-146.25;100.00;57403.91;5110527;28;20202;-82
2023/06/15 03:28:39;;;;;;;5.13;3.35;;;;;;;-146.25;100.00;57403.91;5110404;28;20209;-83
2023/06/15 03:32:06;;;;;;;5.72;3.42;;;;;;;-146.25;100.00;57403.91;5110255;28;20209;-81
2023/06/15 03:35:31;;;;;;;3.40;2.72;;;;;;;-146.25;100.00;57403.91;5110900;28;20201;-81
2023/06/15 03:38:57;;;;;;;3.15;2.83;;;;;;;-146.25;100.00;57403.91;5111130;28;20247;-82
2023/06/15 03:42:23;;;;;;;2.67;2.47;;;;;;;-146.25;100.00;57403.91;5110218;28;20204;-82
2023/06/15 03:45:50;;;;;;;3.95;2.85;;;;;;;-146.25;100.00;57403.91;5104837;28;20222;-84
2023/06/15 03:49:15;;;;;;;2.72;2.53;;;;;;;-146.25;100.00;57403.91;5109537;28;20204;-83
2023/06/15 03:52:41;;;;;;;3.95;3.55;;;;;;;-146.25;100.00;57403.91;5100717;28;20209;-81
2023/06/15 03:56:09;;;;;;;3.58;3.28;;;;;;;-146.25;100.00;57403.91;5102766;28;20633;-82
2023/06/15 03:59:35;;;;;;;5.25;3.42;;;;;;;-146.25;100.00;57403.91;5106656;28;20352;-82
2023/06/15 04:03:04;;;;;;;3.08;2.88;;;;;;;-146.25;100.00;57403.91;5099642;28;20225;-80
2023/06/15 04:06:29;;;;;;;5.05;3.35;;;;;;;-146.25;100.00;57403.91;5110507;28;20203;-81
2023/06/15 04:09:56;;;;;;;3.25;2.67;;;;;;;-146.25;100.00;57403.91;5109431;28;20917;-82
2023/06/15 04:13:22;;;;;;;5.22;3.97;;;;;;;-146.25;100.00;57403.91;5109302;28;20221;-84
2023/06/15 04:16:48;;;;;;;3.85;3.45;;;;;;;-146.25;100.00;57403.91;5109699;28;20205;-82
2023/06/15 04:20:15;;;;;;;5.10;3.90;;;;;;;-146.25;100.00;57403.91;5108657;28;20229;-84
2023/06/15 04:23:42;;;;;;;3.40;2.95;;;;;;;-146.25;100.00;57403.91;5097197;28;20231;-83
2023/06/15 04:27:12;;;;;;;3.45;2.80;;;;;;;-146.25;100.00;57403.91;5097769;28;20616;-83
2023/06/15 04:30:40;;;;;;;2.92;2.72;;;;;;;-146.25;100.00;57403.91;5105063;28;20228;-81
2023/06/15 04:34:13;;;;;;;2.88;2.65;;;;;;;-146.25;100.00;57403.91;5103284;28;20285;-82
2023/06/15 04:37:42;;;;;;;3.03;2.83;;;;;;;-146.25;100.00;57403.91;5098082;28;20201;-83
2023/06/15 04:41:10;;;;;;;3.47;3.10;;;;;;;-146.25;100.00;57403.91;5109153;28;20330;-84
2023/06/15 04:44:36;;;;;;;3.78;3.42;;;;;;;-146.25;100.00;57403.91;5106077;28;20239;-82
2023/06/15 04:48:01;;;;;;;3.05;2.75;;;;;;;-146.25;100.00;57403.91;5101382;28;20197;-82
2023/06/15 04:51:27;;;;;;;2.80;2.20;;;;;;;-146.25;100.00;57403.91;5104875;28;20209;-83
2023/06/15 04:54:55;;;;;;;2.20;2.00;;;;;;;-146.25;100.00;57403.91;5111199;28;20209;-81
2023/06/15 04:58:20;;;;;;;2.20;2.08;;;;;;;-146.25;100.00;57403.91;5110010;28;20217;-82
2023/06/15 05:01:46;;;;;;;3.03;2.58;;;;;;;-146.25;100.00;57403.91;5089941;28;20551;-82
2023/06/15 05:05:12;;;;;;;2.42;2.28;;;;;;;-146.25;100.00;57403.91;5089322;28;20198;-83
2023/06/15 05:08:37;;;;;;;4.13;3.75;;;;;;;-146.25;100.00;57403.91;5091063;28;20513;-82
2023/06/15 05:12:07;;;;;;;3.35;3.10;;;;;;;-146.25;100.00;57403.91;5091703;28;20232;-83
2023/06/15 05:15:32;;;;;;;3.33;2.92;;;;;;;-146.25;100.00;57403.91;5093042;28;20202;-83
2023/06/15 05:18:58;;;;;;;2.92;2.60;;;;;;;-146.25;100.00;57403.91;5092242;28;20756;-83
2023/06/15 05:22:23;;;;;;;4.88;3.53;;;;;;;-146.25;100.00;57403.91;5092085;28;20288;-82
2023/06/15 05:25:49;;;;;;;3.67;2.58;;;;;;;-146.25;100.00;57403.91;5090867;28;20671;-83
2023/06/15 05:29:18;;;;;;;3.28;3.03;;;;;;;-146.25;100.00;57403.91;5096657;28;20205;-83
2023/06/15 05:32:43;;;;;;;2.90;2.67;;;;;;;-146.25;100.00;57403.91;5109782;28;20205;-84
2023/06/15 05:36:09;;;;;;;2.83;2.58;;;;;;;-146.25;100.00;57403.91;5109519;28;20223;-83
2023/06/15 05:39:35;;;;;;;3.28;3.03;;;;;;;-146.25;100.00;57403.91;5109858;28;20247;-84
2023/06/15 05:43:02;;;;;;;3.78;3.17;;;;;;;-146.25;100.00;57403.91;5116541;28;20202;-86
2023/06/15 05:46:29;;;;;;;3.55;2.90;;;;;;;-146.25;100.00;57403.91;5108907;28;20699;-83
2023/06/15 05:49:54;;;;;;;3.17;2.88;;;;;;;-146.25;100.00;57403.91;5112147;28;20209;-84
2023/06/15 05:53:20;;;;;;;3.60;3.30;;;;;;;-146.25;100.00;57403.91;5113059;28;20262;-82
2023/06/15 05:56:46;;;;;;;3.72;3.00;;;;;;;-146.25;100.00;57403.91;5113453;28;20220;-82
2023/06/15 06:00:12;;;;;;;4.40;3.38;;;;;;;-146.25;100.00;57403.91;5113446;28;20260;-83
2023/06/15 06:03:41;;;;;;;3.33;3.10;;;;;;;-146.25;100.00;57403.91;5116045;28;20303;-84
2023/06/15 06:07:07;;;;;;;3.67;3.45;;;;;;;-146.25;100.00;57403.91;5116518;28;20234;-83
2023/06/15 06:10:33;;;;;;;4.63;4.20;;;;;;;-146.25;100.00;57403.91;5115824;28;20522;-81
2023/06/15 06:13:58;;;;;;;4.22;3.65;;;;;;;-146.25;100.00;57403.91;5116638;28;20226;-82
2023/06/15 06:17:24;;;;;;;5.85;4.70;;;;;;;-146.25;100.00;57403.91;5113889;28;20281;-83
2023/06/15 06:20:51;;;;;;;4.75;3.78;;;;;;;-146.25;100.00;57403.91;5113147;28;20629;-83
2023/06/15 06:24:17;;;;;;;3.65;3.35;;;;;;;-146.25;100.00;57403.91;5112604;28;20202;-83
2023/06/15 06:27:43;;;;;;;4.80;3.20;;;;;;;-146.25;100.00;57403.91;5112872;28;20284;-84
2023/06/15 06:31:08;;;;;;;6.30;4.78;;;;;;;-146.25;100.00;57403.91;5092520;28;20267;-84
2023/06/15 06:34:35;;;;;;;4.88;4.38;;;;;;;-146.25;100.00;57403.91;5091420;28;20646;-81
2023/06/15 06:38:02;;;;;;;4.60;4.10;;;;;;;-146.25;100.00;57403.91;5091038;28;21039;-81
2023/06/15 06:41:29;;;;;;;4.15;3.85;;;;;;;-146.25;100.00;57403.91;5099907;28;20234;-83
2023/06/15 06:44:55;;;;;;;5.40;4.65;;;;;;;-146.25;100.00;57403.91;5092457;28;20209;-84
2023/06/15 06:48:22;;;;;;;4.05;3.55;;;;;;;-146.25;100.00;57403.91;5095363;28;20229;-82
2023/06/15 06:51:47;;;;;;;5.07;4.68;;;;;;;-146.25;100.00;57403.91;5104430;28;20300;-83
2023/06/15 06:55:14;;;;;;;4.35;3.95;;;;;;;-146.25;100.00;57403.91;5109983;28;20204;-82
2023/06/15 06:58:39;;;;;;;5.10;4.10;;;;;;;-146.25;100.00;57403.91;5108541;28;20201;-81
2023/06/15 07:02:05;;;;;;;4.20;3.72;;;;;;;-146.25;100.00;57403.91;5110228;28;20224;-83
2023/06/15 07:05:31;;;;;;;4.40;3.97;;;;;;;-146.25;100.00;57403.91;5108546;28;20193;-83
2023/06/15 07:08:57;;;;;;;7.13;4.78;;;;;;;-146.25;100.00;57403.91;5109897;28;20212;-85
2023/06/15 07:12:24;;;;;;;7.97;4.60;;;;;;;-146.25;100.00;57403.91;5109333;28;20726;-85
2023/06/15 07:15:54;;;;;;;5.53;4.40;;;;;;;-146.25;100.00;57403.91;5110633;28;20198;-84
2023/06/15 07:19:21;;;;;;;5.13;4.40;;;;;;;-146.25;100.00;57403.91;5080706;28;20479;-82
2023/06/15 07:22:46;;;;;;;5.05;4.57;;;;;;;-146.25;100.00;57403.91;5099262;28;20233;-83
2023/06/15 07:26:12;;;;;;;4.95;4.55;;;;;;;-146.25;100.00;57403.91;5114967;28;20260;-83
2023/06/15 07:29:39;;;;;;;6.43;4.28;;;;;;;-146.25;100.00;57403.91;5117803;28;20225;-82
2023/06/15 07:33:06;;;;;;;6.85;4.88;;;;;;;-146.25;100.00;57403.91;5108926;28;20252;-83
2023/06/15 07:36:33;;;;;;;5.43;4.28;;;;;;;-146.25;100.00;57403.91;5109570;28;20256;-84
2023/06/15 07:40:00;;;;;;;4.82;4.40;;;;;;;-146.25;100.00;57403.91;5108465;28;20274;-84
2023/06/15 07:43:25;;;;;;;5.35;4.70;;;;;;;-146.25;100.00;57403.91;5109159;28;20232;-85
2023/06/15 07:46:52;;;;;;;4.93;4.43;;;;;;;-146.25;100.00;57403.91;5109379;28;20221;-84
2023/06/15 07:50:18;;;;;;;7.70;4.28;;;;;;;-146.25;100.00;57403.91;5107326;28;20218;-84
2023/06/15 07:53:46;;;;;;;5.25;4.35;;;;;;;-146.25;100.00;57403.91;5109845;28;20277;-83
2023/06/15 07:57:12;;;;;;;9.52;5.32;;;;;;;-146.25;100.00;57403.91;5109870;28;20651;-83
2023/06/15 08:00:37;;;;;;;7.68;4.68;;;;;;;-146.25;100.00;57403.91;5109203;28;20669;-82
2023/06/15 08:04:05;;;;;;;5.22;4.55;;;;;;;-146.25;100.00;57403.91;5110976;28;20618;-83
2023/06/15 08:07:31;;;;;;;4.85;4.30;;;;;;;-146.25;100.00;57403.91;5112743;28;20233;-84
2023/06/15 08:11:00;;;;;;;5.75;4.82;;;;;;;-146.25;100.00;57403.91;5114618;28;20229;-84
2023/06/15 08:14:32;;;;;;;5.43;4.65;;;;;;;-146.25;100.00;57403.91;5116433;28;20212;-86
2023/06/15 08:17:59;;;;;;;5.32;4.65;;;;;;;-146.25;100.00;57403.91;5111129;28;20248;-84
2023/06/15 08:21:26;;;;;;;7.82;5.32;;;;;;;-146.25;100.00;57403.91;5118513;28;20324;-85
2023/06/15 08:24:52;;;;;;;8.90;4.97;;;;;;;-146.25;100.00;57403.91;5110959;28;20575;-87
2023/06/15 08:28:21;;;;;;;7.28;5.45;;;;;;;-146.25;100.00;57403.91;5110753;28;20328;-86
2023/06/15 08:31:48;;;;;;;6.50;4.32;;;;;;;-146.25;100.00;57403.91;5111963;28;20247;-87
2023/06/15 08:35:17;;;;;;;4.78;4.15;;;;;;;-146.25;100.00;57403.91;5094740;28;20237;-86
2023/06/15 08:38:47;;;;;;;6.70;4.88;;;;;;;-146.25;100.00;57403.91;5090851;28;20357;-86
2023/06/15 08:42:17;;;;;;;6.18;4.43;;;;;;;-146.25;100.00;57403.91;5089868;28;20244;-86
2023/06/15 08:45:50;;;;;;;12.98;5.05;;;;;;;-146.25;100.00;57403.91;5089945;28;20717;-86
2023/06/15 08:49:17;;;;;;;6.53;4.90;;;;;;;-146.25;100.00;57403.91;5089880;28;20407;-85
2023/06/15 08:52:45;;;;;;;6.72;4.75;;;;;;;-146.25;100.00;57403.91;5090167;28;20305;-84
2023/06/15 08:56:13;;;;;;;9.40;4.90;;;;;;;-146.25;100.00;57403.91;5090125;28;20240;-85
2023/06/15 08:59:42;;;;;;;11.25;6.15;;;;;;;-146.25;100.00;57403.91;5093008;28;20265;-83
2023/06/15 09:03:10;;;;;;;6.43;5.68;;;;;;;-146.25;100.00;57403.91;5088489;28;20245;-82
2023/06/15 09:06:35;;;;;;;5.85;4.95;;;;;;;-146.25;100.00;57403.91;5093064;28;20226;-82
2023/06/15 09:10:18;;;;;;;7.80;4.68;;;;;;;-146.25;100.00;57403.91;5089906;28;20549;-83
2023/06/15 09:13:45;;;;;;;6.65;4.80;;;;;;;-146.25;100.00;57403.91;5090773;28;20225;-81
2023/06/15 09:17:12;;;;;;;8.00;6.13;;;;;;;-146.25;100.00;57403.91;5090287;28;20294;-82
2023/06/15 09:20:39;;;;;;;5.97;4.50;;;;;;;-146.25;100.00;57403.91;5091054;28;20222;-83
2023/06/15 09:24:13;;;;;;;8.35;5.90;;;;;;;-146.25;100.00;57403.91;5093361;28;20757;-83
2023/06/15 09:27:40;;;;;;;6.60;5.15;;;;;;;-146.25;100.00;57403.91;5097294;28;20658;-84
2023/06/15 09:31:07;;;;;;;9.18;5.30;;;;;;;-146.25;100.00;57403.91;5113933;28;20263;-85
2023/06/15 09:34:33;;;;;;;9.48;5.00;;;;;;;-146.25;100.00;57403.91;5114059;28;20228;-83
2023/06/15 09:37:59;;;;;;;8.02;4.95;;;;;;;-146.25;100.00;57403.91;5113594;28;20224;-83
2023/06/15 09:41:27;;;;;;;7.97;5.20;;;;;;;-146.25;100.00;57403.91;5113233;28;20685;-83
2023/06/15 09:44:55;;;;;;;4.90;4.00;;;;;;;-146.25;100.00;57403.91;5112932;28;20243;-82
2023/06/15 09:48:21;;;;;;;5.40;4.13;;;;;;;-146.25;100.00;57403.91;5112012;28;20224;-82
2023/06/15 09:51:50;;;;;;;9.68;5.18;;;;;;;-146.25;100.00;57403.91;5112012;28;20726;-83
2023/06/15 09:55:17;;;;;;;6.93;4.35;;;;;;;-146.25;100.00;57403.91;5098260;28;20237;-82
2023/06/15 09:58:43;;;;;;;8.23;5.22;;;;;;;-146.25;100.00;57403.91;5111247;28;20278;-82
2023/06/15 10:02:11;;;;;;;7.03;5.35;;;;;;;-146.25;100.00;57403.91;5110772;28;20233;-83
2023/06/15 10:05:41;;;;;;;6.60;4.78;;;;;;;-146.25;100.00;57403.91;5112087;28;20229;-84
2023/06/15 10:09:07;;;;;;;5.10;4.32;;;;;;;-146.25;100.00;57403.91;5098061;28;20228;-83
2023/06/15 10:12:52;;;;;;;5.85;5.25;;;;;;;-146.25;100.00;57403.91;5103947;28;20583;-84
2023/06/15 10:16:22;;;;;;;6.88;4.90;;;;;;;-146.25;100.00;57403.91;5098050;28;20217;-85
2023/06/15 10:19:56;;;;;;;8.18;4.50;;;;;;;-146.25;100.00;57403.91;5110099;28;20282;-82
2023/06/15 10:23:26;;;;;;;7.85;5.30;;;;;;;-146.25;100.00;57403.91;5106062;28;20260;-84
2023/06/15 10:26:53;;;;;;;4.93;4.07;;;;;;;-146.25;100.00;57403.91;5109410;28;20730;-83
2023/06/15 10:30:34;;;;;;;7.97;4.75;;;;;;;-146.25;100.00;57403.91;5111844;28;20693;-84
2023/06/15 10:34:20;;;;;;;5.65;4.47;;;;;;;-146.25;100.00;57403.91;5111587;28;20278;-85
2023/06/15 10:37:58;;;;;;;4.85;3.75;;;;;;;-146.25;100.00;57403.91;5111345;28;20274;-83
2023/06/15 10:41:30;;;;;;;4.47;4.00;;;;;;;-146.25;100.00;57403.91;5111885;28;20240;-83
2023/06/15 10:44:59;;;;;;;4.25;3.78;;;;;;;-146.25;100.00;57403.91;5110545;28;20219;-84
2023/06/15 10:48:27;;;;;;;4.53;4.10;;;;;;;-146.25;100.00;57403.91;5109735;28;20240;-84
2023/06/15 10:52:02;;;;;;;7.47;4.47;;;;;;;-146.25;100.00;57403.91;5110111;28;20715;-84
2023/06/15 10:55:28;;;;;;;7.00;4.68;;;;;;;-146.25;100.00;57403.91;5097462;28;20218;-85
2023/06/15 10:58:59;;;;;;;7.68;4.50;;;;;;;-146.25;100.00;57403.91;5109763;28;20229;-85
2023/06/15 11:02:44;;;;;;;13.13;5.10;;;;;;;-146.25;100.00;57403.91;5108664;28;20221;-84
2023/06/15 11:06:15;;;;;;;8.15;5.57;;;;;;;-146.25;100.00;57403.91;5103384;28;20314;-85
2023/06/15 11:09:43;;;;;;;6.78;4.75;;;;;;;-146.25;100.00;57403.91;5114137;28;20243;-84
2023/06/15 11:13:25;;;;;;;9.77;5.35;;;;;;;-146.25;100.00;57403.91;5101357;28;20331;-85
2023/06/15 11:17:05;;;;;;;10.10;6.25;;;;;;;-146.25;100.00;57403.91;5105254;28;20278;-84
2023/06/15 11:20:51;;;;;;;8.93;5.90;;;;;;;-146.25;100.00;57403.91;5092823;28;20221;-85
2023/06/15 11:24:23;;;;;;;6.90;4.93;;;;;;;-146.25;100.00;57403.91;5076785;28;20245;-83
2023/06/15 11:27:53;;;;;;;5.03;4.57;;;;;;;-146.25;100.00;57403.91;5092172;28;20282;-84
2023/06/15 11:30:28;;;;;;;6.82;4.88;;;;;;;-146.25;100.00;57403.91;5092735;28;20218;-84
2023/06/15 11:33:57;;;;;;;10.13;5.13;;;;;;;-146.25;100.00;57403.91;5094316;28;20367;-85
2023/06/15 11:37:27;;;;;;;8.15;4.78;;;;;;;-146.25;100.00;57403.91;5106647;28;20238;-86
2023/06/15 11:41:00;;;;;;;6.35;5.15;;;;;;;-146.25;100.00;57403.91;5110601;28;20225;-85
2023/06/15 11:44:30;;;;;;;5.40;4.80;;;;;;;-146.25;100.00;57403.91;5090132;28;20272;-85
2023/06/15 11:47:59;;;;;;;5.90;4.20;;;;;;;-146.25;100.00;57403.91;5091347;28;20244;-84
2023/06/15 11:51:25;;;;;;;5.15;3.88;;;;;;;-146.25;100.00;57403.91;5095953;28;20231;-85
2023/06/15 11:54:52;;;;;;;6.22;4.47;;;;;;;-146.25;100.00;57403.91;5109545;28;20236;-84
2023/06/15 11:58:20;;;;;;;4.75;3.90;;;;;;;-146.25;100.00;57403.91;5111243;28;20239;-84
2023/06/15 12:01:45;;;;;;;4.82;4.32;;;;;;;-146.25;100.00;57403.91;5118283;28;20228;-84
2023/06/15 12:05:12;;;;;;;5.97;4.25;;;;;;;-146.25;100.00;57403.91;5112877;28;20229;-85
2023/06/15 12:08:39;;;;;;;5.13;4.15;;;;;;;-146.25;100.00;57403.91;5112148;28;20674;-83
2023/06/15 12:12:10;;;;;;;7.22;4.47;;;;;;;-146.25;100.00;57403.91;5109901;28;20225;-83
2023/06/15 12:15:46;;;;;;;6.18;4.07;;;;;;;-146.25;100.00;57403.91;5111182;28;20236;-85
2023/06/15 12:19:12;;;;;;;9.13;4.60;;;;;;;-146.25;100.00;57403.91;5113856;28;20290;-85
2023/06/15 12:22:41;;;;;;;6.47;4.10;;;;;;;-146.25;100.00;57403.91;5110816;28;20229;-85
2023/06/15 12:26:07;;;;;;;4.57;4.18;;;;;;;-146.25;100.00;57403.91;5109868;28;20285;-85
2023/06/15 12:29:38;;;;;;;4.22;3.83;;;;;;;-146.25;100.00;57403.91;5108453;28;20654;-85
2023/06/15 12:33:26;;;;;;;4.38;3.47;;;;;;;-146.25;100.00;57403.91;5106292;28;20672;-84
2023/06/15 12:36:52;;;;;;;3.78;3.47;;;;;;;-146.25;100.00;57403.91;5108279;28;20253;-84
2023/06/15 12:40:21;;;;;;;3.10;2.85;;;;;;;-146.25;100.00;57403.91;5105885;28;20316;-85
2023/06/15 12:43:56;;;;;;;3.88;3.60;;;;;;;-146.25;100.00;57403.91;5108196;28;20308;-84
2023/06/15 12:47:24;;;;;;;4.82;3.30;;;;;;;-146.25;100.00;57403.91;5107244;28;20724;-84
2023/06/15 12:50:51;;;;;;;3.97;3.50;;;;;;;-146.25;100.00;57403.91;5107939;28;20225;-84
2023/06/15 12:54:18;;;;;;;4.60;3.72;;;;;;;-146.25;100.00;57403.91;5087320;28;20242;-84
2023/06/15 12:57:41;;;;;;;5.95;4.53;;;;;;;-146.25;100.00;57403.91;5089647;28;20266;-85
2023/06/15 13:00:52;;;;;;;4.30;4.00;;;;;;;-146.25;100.00;57403.91;5090115;28;20670;-86
2023/06/15 13:03:57;;;;;;;3.78;3.50;;;;;;;-146.25;100.00;57403.91;5089518;28;20241;-84
2023/06/15 13:07:24;;;;;;;5.18;3.42;;;;;;;-146.25;100.00;57403.91;5091878;28;20221;-85
2023/06/15 13:10:50;;;;;;;3.70;3.42;;;;;;;-146.25;100.00;57403.91;5090551;28;20225;-84
2023/06/15 13:14:15;;;;;;;4.80;3.30;;;;;;;-146.25;100.00;57403.91;5091346;28;20226;-85
2023/06/15 13:17:42;;;;;;;3.80;3.42;;;;;;;-146.25;100.00;57403.91;5090816;28;20230;-84
2023/06/15 13:21:12;;;;;;;3.83;3.17;;;;;;;-146.25;100.00;57403.91;5091386;28;20225;-85
2023/06/15 13:24:39;;;;;;;3.58;3.20;;;;;;;-146.25;100.00;57403.91;5090853;28;20248;-85
2023/06/15 13:28:05;;;;;;;5.78;2.85;;;;;;;-146.25;100.00;57403.91;5091084;28;20671;-85
2023/06/15 13:31:31;;;;;;;3.25;3.05;;;;;;;-146.25;100.00;57403.91;5090744;28;20710;-84
2023/06/15 13:34:58;;;;;;;4.07;3.75;;;;;;;-146.25;100.00;57403.91;5091058;28;20226;-85
2023/06/15 13:38:26;;;;;;;3.03;2.83;;;;;;;-146.25;100.00;57403.91;5090190;28;20602;-84
2023/06/15 13:41:55;;;;;;;3.35;3.08;;;;;;;-146.25;100.00;57403.91;5091352;28;20244;-84
2023/06/15 13:45:22;;;;;;;3.28;2.72;;;;;;;-146.25;100.00;57403.91;5088281;28;20237;-85
2023/06/15 13:48:47;;;;;;;3.28;3.03;;;;;;;-146.25;100.00;57403.91;5090470;28;20253;-85
2023/06/15 13:52:13;;;;;;;3.67;3.40;;;;;;;-146.25;100.00;57403.91;5090457;28;20237;-84
2023/06/15 13:55:42;;;;;;;4.18;3.50;;;;;;;-146.25;100.00;57403.91;5090168;28;20221;-85
2023/06/15 13:59:12;;;;;;;5.55;3.33;;;;;;;-146.25;100.00;57403.91;5090933;28;20256;-85
2023/06/15 14:02:42;;;;;;;4.07;3.50;;;;;;;-146.25;100.00;57403.91;5089403;28;20249;-84
2023/06/15 14:06:16;;;;;;;4.53;4.05;;;;;;;-146.25;100.00;57403.91;5090008;28;20240;-82
2023/06/15 14:09:43;;;;;;;4.25;3.70;;;;;;;-146.25;100.00;57403.91;5089684;28;20716;-84
2023/06/15 14:13:10;;;;;;;4.25;3.90;;;;;;;-146.25;100.00;57403.91;5090022;28;20230;-83
2023/06/15 14:16:36;;;;;;;4.57;4.18;;;;;;;-146.25;100.00;57403.91;5088453;28;20222;-84
2023/06/15 14:20:02;;;;;;;4.07;3.75;;;;;;;-146.25;100.00;57403.91;5090607;28;20297;-82
2023/06/15 14:23:31;;;;;;;6.63;4.20;;;;;;;-146.25;100.00;57403.91;5089771;28;20233;-84
2023/06/15 14:26:58;;;;;;;6.82;4.38;;;;;;;-146.25;100.00;57403.91;5089806;28;20240;-83
2023/06/15 14:30:25;;;;;;;5.38;4.45;;;;;;;-146.25;100.00;57403.91;5092204;28;20226;-83
2023/06/15 14:33:51;;;;;;;4.18;3.83;;;;;;;-146.25;100.00;57403.91;5091007;28;20324;-84
2023/06/15 14:37:20;;;;;;;16.42;7.82;;;;;;;-146.25;100.00;57403.91;5091433;28;20693;-81
2023/06/15 14:40:46;;;;;;;14.20;8.07;;;;;;;-146.25;100.00;57403.91;5089727;28;20214;-83
2023/06/15 14:44:17;;;;;;;6.75;5.25;;;;;;;-146.25;100.00;57403.91;5091085;28;20241;-83
2023/06/15 14:47:43;;;;;;;4.88;4.28;;;;;;;-146.25;100.00;57403.91;5089312;28;20628;-82
2023/06/15 14:51:10;;;;;;;8.20;5.78;;;;;;;-146.25;100.00;57403.91;5090235;28;20694;-84
2023/06/15 14:54:41;;;;;;;7.82;4.97;;;;;;;-146.25;100.00;57403.91;5088473;28;20306;-83
2023/06/15 14:58:06;;;;;;;9.55;4.50;;;;;;;-146.25;100.00;57403.91;5092200;28;20221;-83
2023/06/15 15:01:33;;;;;;;7.85;4.28;;;;;;;-146.25;100.00;57403.91;5092383;28;20225;-84
2023/06/15 15:05:05;;;;;;;8.48;3.35;;;;;;;-146.25;100.00;57403.91;5092410;28;20217;-82
2023/06/15 15:08:31;;;;;;;5.68;4.50;;;;;;;-146.25;100.00;57403.91;5091248;28;20325;-85
2023/06/15 15:11:57;;;;;;;6.78;4.60;;;;;;;-146.25;100.00;57403.91;5091557;28;20226;-83
2023/06/15 15:15:22;;;;;;;4.60;4.20;;;;;;;-146.25;100.00;57403.91;5097421;28;20271;-84
2023/06/15 15:18:49;;;;;;;5.55;4.78;;;;;;;-146.25;100.00;57403.91;5097199;28;20297;-82
2023/06/15 15:22:15;;;;;;;10.10;4.03;;;;;;;-146.25;100.00;57403.91;5094124;28;20822;-84
2023/06/15 15:25:42;;;;;;;7.35;4.93;;;;;;;-146.25;100.00;57403.91;5094978;28;20238;-84
2023/06/15 15:29:10;;;;;;;4.32;3.38;;;;;;;-146.25;100.00;57403.91;5105698;28;20275;-83
2023/06/15 15:32:37;;;;;;;4.80;4.40;;;;;;;-146.25;100.00;57403.91;5110277;28;20234;-85
2023/06/15 15:36:08;;;;;;;9.40;4.85;;;;;;;-146.25;100.00;57403.91;5097765;28;20637;-85
2023/06/15 15:39:34;;;;;;;5.50;4.47;;;;;;;-146.25;100.00;57403.91;5090506;28;20222;-84
2023/06/15 15:43:04;;;;;;;4.40;4.00;;;;;;;-146.25;100.00;57403.91;5092452;28;20234;-85